Tamaha, Oklahoma
Current Conditions -  °F | °C
As of 5:55 AM on Sunday 23 Nov 2014 (Local Time) from KGZL Reporting Station
Overcast Overcast  
Wind Chill: 57°   Ceiling: 1600
Heat Index: 57°   Visibility: 10mi
Dew Point: 57°   Wind: 5mph
Humidity: 100%   Direction: 160°SSE
Pressure: 29.58"   Gusts: NA
Location:  35.2928°N, 95.0844°W
Report Text: KGZL 231155Z AUTO 16004KT 10SM BKN016 OVC021 14/14 A2958 RMK AO2
Loading
Personal Weather Stations






























Interactive Weather Map New forecast layout! Learn more

10-Day Weather Forecast

Advertisements
Track Severe Weather on mobile